Time;durP1;ratioP1;P1;durP2;ratioP2;P2;SDS_P1;SDS_P2;PMS_P1;PMS_P2;Temp;Humidity;BMP_temperature;BMP_pressure;BME280_temperature;BME280_humidity;BME280_pressure;Samples;Min_cycle;Max_cycle;Signal;HPM_P1;HPM_P2
2024/03/14 00:02:15;;;;;;;155.70;110.30;;;;;;;5.73;100.00;99016.40;108924;1260;59034;-75
2024/03/14 00:04:42;;;;;;;152.60;105.50;;;;;;;5.70;100.00;99011.96;108916;1260;59227;-77
2024/03/14 00:07:08;;;;;;;161.30;108.40;;;;;;;5.70;100.00;99010.73;108893;1260;65756;-77
2024/03/14 00:09:35;;;;;;;149.70;107.60;;;;;;;5.71;100.00;99014.90;108938;1260;58960;-77
2024/03/14 00:12:01;;;;;;;149.80;106.70;;;;;;;5.72;100.00;99012.41;108901;1260;59914;-78
2024/03/14 00:14:28;;;;;;;150.90;105.30;;;;;;;5.69;100.00;99014.83;108919;1260;59058;-77
2024/03/14 00:16:54;;;;;;;166.80;116.70;;;;;;;5.68;100.00;99008.36;108918;1260;58862;-77
2024/03/14 00:19:21;;;;;;;150.20;108.50;;;;;;;5.69;100.00;99005.14;108927;1260;59876;-78
2024/03/14 00:21:47;;;;;;;152.80;106.10;;;;;;;5.71;100.00;99004.70;108908;1260;58977;-77
2024/03/14 00:24:16;;;;;;;151.40;105.00;;;;;;;5.69;100.00;99006.20;108921;1260;64084;-76
2024/03/14 00:26:43;;;;;;;150.60;106.30;;;;;;;5.65;100.00;99010.28;108929;1260;59040;-76
2024/03/14 00:29:10;;;;;;;173.80;120.10;;;;;;;5.61;100.00;99001.63;108916;1260;58877;-77
2024/03/14 00:31:39;;;;;;;188.40;132.80;;;;;;;5.60;100.00;98993.23;108911;1260;58959;-77
2024/03/14 00:34:07;;;;;;;185.30;126.90;;;;;;;5.59;100.00;98987.27;108948;1260;59294;-78
2024/03/14 00:36:37;;;;;;;165.10;118.70;;;;;;;5.59;100.00;98987.45;108914;1260;62895;-77
2024/03/14 00:39:07;;;;;;;160.70;114.50;;;;;;;5.62;100.00;98991.21;108895;1264;59380;-77
2024/03/14 00:41:34;;;;;;;156.60;112.40;;;;;;;5.64;100.00;98988.27;108910;1260;59013;-77
2024/03/14 00:44:01;;;;;;;155.20;115.80;;;;;;;5.65;100.00;98984.70;108935;1260;64690;-79
2024/03/14 00:46:29;;;;;;;153.70;111.20;;;;;;;5.66;100.00;98982.92;108939;1260;60967;-78
2024/03/14 00:48:56;;;;;;;161.00;113.50;;;;;;;5.64;100.00;98979.14;108923;1260;63773;-76
2024/03/14 00:51:23;;;;;;;160.70;112.60;;;;;;;5.60;100.00;98981.76;108723;1260;59117;-77
2024/03/14 00:53:51;;;;;;;154.60;110.50;;;;;;;5.59;100.00;98982.86;108934;1260;59032;-77
2024/03/14 00:56:17;;;;;;;163.30;114.40;;;;;;;5.60;100.00;98983.20;108917;1260;66118;-77
2024/03/14 00:58:44;;;;;;;157.60;112.20;;;;;;;5.60;100.00;98979.30;108814;1260;60147;-77
2024/03/14 01:01:10;;;;;;;166.60;115.20;;;;;;;5.62;100.00;98978.54;108905;1260;64227;-77
2024/03/14 01:03:37;;;;;;;162.10;111.30;;;;;;;5.62;100.00;98980.95;108927;1260;59010;-77
2024/03/14 01:06:04;;;;;;;161.20;113.20;;;;;;;5.61;100.00;98975.71;108930;1260;59055;-76
2024/03/14 01:08:30;;;;;;;148.60;105.60;;;;;;;5.62;100.00;98979.92;108933;1260;64998;-77
2024/03/14 01:10:57;;;;;;;153.80;108.40;;;;;;;5.61;100.00;98983.14;108913;1260;60177;-78
2024/03/14 01:13:25;;;;;;;160.90;112.90;;;;;;;5.59;100.00;98978.83;108940;1260;59058;-77
2024/03/14 01:15:52;;;;;;;174.70;120.40;;;;;;;5.59;100.00;98974.63;108906;1260;58963;-76
2024/03/14 01:18:19;;;;;;;176.80;124.00;;;;;;;5.61;100.00;98976.61;108948;1260;60037;-76
2024/03/14 01:20:46;;;;;;;176.30;125.50;;;;;;;5.64;100.00;98973.85;108704;1261;64882;-77
2024/03/14 01:23:12;;;;;;;184.10;129.80;;;;;;;5.65;100.00;98973.08;108920;1260;58924;-78
2024/03/14 01:25:40;;;;;;;175.90;123.30;;;;;;;5.65;100.00;98968.32;108903;1260;58930;-78
2024/03/14 01:28:07;;;;;;;163.00;116.10;;;;;;;5.67;100.00;98962.27;108892;1260;59057;-77
2024/03/14 01:30:33;;;;;;;160.70;115.40;;;;;;;5.67;100.00;98962.41;108919;1260;58951;-76
2024/03/14 01:33:00;;;;;;;165.80;117.70;;;;;;;5.67;100.00;98963.98;108911;1261;59317;-78
2024/03/14 01:35:27;;;;;;;160.20;113.00;;;;;;;5.69;100.00;98966.17;108940;1260;60145;-77
2024/03/14 01:37:53;;;;;;;168.90;116.80;;;;;;;5.68;100.00;98969.25;108906;1260;59788;-77
2024/03/14 01:40:19;;;;;;;179.40;124.30;;;;;;;5.65;100.00;98967.61;108833;1260;59433;-77
2024/03/14 01:42:54;;;;;;;181.60;125.10;;;;;;;5.65;100.00;98961.25;108925;1260;59105;-77
2024/03/14 01:45:21;;;;;;;167.80;121.20;;;;;;;5.67;100.00;98956.98;108939;1260;66067;-77
2024/03/14 01:47:48;;;;;;;180.80;124.00;;;;;;;5.67;100.00;98959.45;108723;1260;69794;-77
2024/03/14 01:50:15;;;;;;;182.50;129.50;;;;;;;5.67;100.00;98954.85;108928;1260;62823;-77
2024/03/14 01:52:44;;;;;;;179.10;126.00;;;;;;;5.67;100.00;98950.59;108903;1261;59013;-77
2024/03/14 01:55:11;;;;;;;178.20;126.40;;;;;;;5.67;100.00;98951.13;108891;1260;59005;-77
2024/03/14 01:57:39;;;;;;;167.00;122.00;;;;;;;5.67;100.00;98957.13;108894;1261;65721;-77
2024/03/14 02:00:06;;;;;;;167.90;122.50;;;;;;;5.66;100.00;98957.01;108939;1260;60247;-77
2024/03/14 02:02:35;;;;;;;185.60;127.30;;;;;;;5.64;100.00;98956.02;108921;1260;64080;-76
2024/03/14 02:05:30;;;;;;;185.90;130.20;;;;;;;5.64;100.00;98955.51;108772;1260;59118;-77
2024/03/14 02:07:58;;;;;;;183.00;130.60;;;;;;;5.66;100.00;98954.71;108893;1264;58917;-77
2024/03/14 02:10:25;;;;;;;179.70;128.70;;;;;;;5.67;100.00;98953.63;108926;1260;65887;-77
2024/03/14 02:12:53;;;;;;;175.00;126.90;;;;;;;5.67;100.00;98952.02;108914;1263;58971;-77
2024/03/14 02:15:20;;;;;;;170.30;129.60;;;;;;;5.65;100.00;98949.10;108919;1260;64110;-77
2024/03/14 02:17:46;;;;;;;179.90;128.90;;;;;;;5.64;100.00;98951.64;108905;1261;58937;-78
2024/03/14 02:20:14;;;;;;;173.70;126.70;;;;;;;5.63;100.00;98952.18;108913;1263;59039;-77
2024/03/14 02:22:41;;;;;;;177.10;131.10;;;;;;;5.61;100.00;98945.23;108925;1260;65712;-77
2024/03/14 02:25:07;;;;;;;175.70;128.80;;;;;;;5.58;100.00;98949.61;108925;1260;58998;-78
2024/03/14 02:27:34;;;;;;;178.40;126.10;;;;;;;5.56;100.00;98948.52;108929;1261;65139;-77
2024/03/14 02:30:00;;;;;;;165.00;117.20;;;;;;;5.56;100.00;98952.73;108905;1261;59288;-77
2024/03/14 02:32:28;;;;;;;181.80;121.80;;;;;;;5.54;100.00;98958.09;108917;1260;59040;-77
2024/03/14 02:34:54;;;;;;;173.60;114.60;;;;;;;5.54;100.00;98957.21;108912;1260;66304;-77
2024/03/14 02:37:21;;;;;;;170.80;109.90;;;;;;;5.51;100.00;98960.34;108916;1260;59060;-77
2024/03/14 02:39:48;;;;;;;158.00;104.10;;;;;;;5.49;100.00;98960.62;108910;1260;73726;-77
2024/03/14 02:42:14;;;;;;;157.40;100.10;;;;;;;5.49;100.00;98956.23;108913;1260;59027;-76
2024/03/14 02:44:41;;;;;;;153.40;100.10;;;;;;;5.46;100.00;98954.75;108920;1265;58986;-76
2024/03/14 02:47:07;;;;;;;162.00;99.60;;;;;;;5.43;100.00;98960.70;108929;1260;59727;-77
2024/03/14 02:49:34;;;;;;;176.90;99.70;;;;;;;5.42;100.00;98962.00;108930;1261;59195;-77
2024/03/14 02:52:01;;;;;;;173.00;98.50;;;;;;;5.40;100.00;98965.45;108902;1260;63793;-76
2024/03/14 02:54:30;;;;;;;160.60;92.40;;;;;;;5.37;100.00;98966.30;108908;1260;58945;-77
2024/03/14 02:56:56;;;;;;;151.10;90.40;;;;;;;5.35;100.00;98962.67;108886;1260;59242;-76
2024/03/14 02:59:23;;;;;;;140.50;82.00;;;;;;;5.36;100.00;98968.63;108748;1261;66037;-76
2024/03/14 03:01:49;;;;;;;145.60;88.30;;;;;;;5.35;100.00;98975.55;108930;1260;59050;-77
2024/03/14 03:04:16;;;;;;;139.40;84.50;;;;;;;5.34;100.00;98974.52;108909;1260;63759;-77
2024/03/14 03:06:53;;;;;;;144.00;88.60;;;;;;;5.35;100.00;98971.34;108915;1260;58938;-76
2024/03/14 03:09:22;;;;;;;138.80;85.70;;;;;;;5.35;100.00;98966.23;108892;1261;59123;-77
2024/03/14 03:11:49;;;;;;;132.10;79.70;;;;;;;5.34;100.00;98960.64;108951;1260;66161;-77
2024/03/14 03:14:15;;;;;;;133.60;79.10;;;;;;;5.32;100.00;98964.24;108923;1260;59927;-76
2024/03/14 03:16:44;;;;;;;139.40;81.20;;;;;;;5.31;100.00;98959.34;108923;1260;64078;-77
2024/03/14 03:19:10;;;;;;;126.60;75.00;;;;;;;5.29;100.00;98963.63;108720;1260;59335;-77
2024/03/14 03:21:37;;;;;;;122.10;72.80;;;;;;;5.28;100.00;98966.88;108907;1260;59049;-77
2024/03/14 03:24:07;;;;;;;124.10;75.90;;;;;;;5.27;100.00;98968.14;108904;1260;65911;-77
2024/03/14 03:26:34;;;;;;;123.40;71.80;;;;;;;5.28;100.00;98968.10;108942;1261;59845;-77
2024/03/14 03:29:01;;;;;;;122.60;72.30;;;;;;;5.28;100.00;98963.69;108898;1260;64111;-77
2024/03/14 03:31:28;;;;;;;126.20;75.80;;;;;;;5.27;100.00;98959.35;108929;1260;59147;-76
2024/03/14 03:33:54;;;;;;;131.60;76.30;;;;;;;5.25;100.00;98962.25;108947;1260;58941;-78
2024/03/14 03:36:23;;;;;;;117.60;70.00;;;;;;;5.24;100.00;98967.09;108905;1260;59041;-77
2024/03/14 03:38:51;;;;;;;126.70;76.60;;;;;;;5.22;100.00;98975.60;108917;1260;59768;-77
2024/03/14 03:41:23;;;;;;;121.50;72.70;;;;;;;5.21;100.00;98979.34;108917;1260;64149;-77
2024/03/14 03:43:52;;;;;;;110.30;68.40;;;;;;;5.21;100.00;98975.98;108939;1260;58940;-76
2024/03/14 03:46:19;;;;;;;110.60;70.10;;;;;;;5.21;100.00;98973.17;108959;1260;58981;-76
2024/03/14 03:48:46;;;;;;;114.30;69.10;;;;;;;5.21;100.00;98968.26;108952;1260;65727;-76
2024/03/14 03:51:13;;;;;;;104.30;67.60;;;;;;;5.20;100.00;98965.49;108934;1260;59037;-78
2024/03/14 03:53:39;;;;;;;106.30;67.10;;;;;;;5.18;100.00;98966.61;108907;1260;63766;-77
2024/03/14 03:56:07;;;;;;;105.80;67.30;;;;;;;5.17;100.00;98968.25;108761;1260;58980;-77
2024/03/14 03:58:33;;;;;;;98.50;64.00;;;;;;;5.16;100.00;98969.17;108954;1260;59805;-77
2024/03/14 04:01:10;;;;;;;92.10;62.40;;;;;;;5.15;100.00;98969.77;108903;1260;66125;-77
2024/03/14 04:03:40;;;;;;;90.30;60.10;;;;;;;5.15;100.00;98974.70;108944;1260;60627;-77
2024/03/14 04:06:10;;;;;;;91.90;60.40;;;;;;;5.15;100.00;98973.81;108906;1260;64048;-76
2024/03/14 04:08:37;;;;;;;93.60;63.70;;;;;;;5.16;100.00;98970.61;108913;1261;59027;-78
2024/03/14 04:11:07;;;;;;;90.10;62.80;;;;;;;5.16;100.00;98972.36;108934;1260;59013;-77
2024/03/14 04:13:34;;;;;;;90.10;60.90;;;;;;;5.16;100.00;98972.55;108895;1260;67368;-77
2024/03/14 04:16:01;;;;;;;96.90;64.00;;;;;;;5.16;100.00;98970.62;108935;1260;59825;-77
2024/03/14 04:18:30;;;;;;;102.70;65.60;;;;;;;5.17;100.00;98972.14;108925;1260;64237;-77
2024/03/14 04:20:57;;;;;;;96.20;64.50;;;;;;;5.17;100.00;98973.71;108929;1260;59051;-77
2024/03/14 04:23:26;;;;;;;105.50;65.70;;;;;;;5.17;100.00;98975.63;108942;1260;59192;-78
2024/03/14 04:25:54;;;;;;;105.30;63.90;;;;;;;5.17;100.00;98978.46;108905;1260;66054;-76
2024/03/14 04:28:23;;;;;;;107.30;65.50;;;;;;;5.17;100.00;98975.27;108918;1261;59677;-77
2024/03/14 04:30:53;;;;;;;110.70;66.90;;;;;;;5.18;100.00;98969.80;108939;1260;63860;-77
2024/03/14 04:33:19;;;;;;;108.30;64.00;;;;;;;5.17;100.00;98975.47;108907;1260;58924;-77
2024/03/14 04:35:46;;;;;;;108.10;65.50;;;;;;;5.15;100.00;98982.44;108943;1260;58848;-77
2024/03/14 04:38:12;;;;;;;107.30;60.80;;;;;;;5.11;100.00;98983.69;108941;1260;65894;-77
2024/03/14 04:40:39;;;;;;;98.50;61.00;;;;;;;5.07;100.00;98979.43;108926;1260;59247;-76
2024/03/14 04:43:08;;;;;;;103.20;60.20;;;;;;;5.06;100.00;98980.53;108913;1260;65221;-78
2024/03/14 04:45:35;;;;;;;99.90;60.80;;;;;;;5.05;100.00;98985.86;108891;1260;59367;-76
2024/03/14 04:48:04;;;;;;;93.70;59.40;;;;;;;5.04;100.00;98989.77;108954;1260;59051;-78
2024/03/14 04:50:31;;;;;;;82.30;53.80;;;;;;;5.04;100.00;98987.67;108942;1260;66054;-78
2024/03/14 04:52:58;;;;;;;83.10;52.90;;;;;;;5.04;100.00;98984.67;108971;1260;59921;-77
2024/03/14 04:55:24;;;;;;;82.40;54.50;;;;;;;5.04;100.00;98987.52;108913;1260;59122;-79
2024/03/14 04:57:51;;;;;;;83.00;51.30;;;;;;;5.02;100.00;98989.34;108931;1260;58965;-77
2024/03/14 05:02:48;;;;;;;81.10;53.10;;;;;;;5.00;100.00;98985.03;108910;1260;66024;-76
2024/03/14 05:05:20;;;;;;;86.80;54.60;;;;;;;5.02;100.00;98980.75;108939;1260;61443;-76
2024/03/14 05:07:47;;;;;;;88.10;57.50;;;;;;;5.03;100.00;98987.57;108872;1260;64214;-77
2024/03/14 05:10:20;;;;;;;89.00;57.30;;;;;;;5.03;100.00;98990.36;108883;1260;59332;-77
2024/03/14 05:12:47;;;;;;;83.80;53.60;;;;;;;5.02;100.00;98997.12;108924;1260;59017;-77
2024/03/14 05:15:14;;;;;;;90.30;56.90;;;;;;;4.99;100.00;98998.61;108920;1260;66994;-77
2024/03/14 05:17:45;;;;;;;81.60;52.90;;;;;;;5.00;100.00;98998.05;108918;1260;60310;-77
2024/03/14 05:20:13;;;;;;;83.90;53.80;;;;;;;5.03;100.00;98994.24;108880;1260;63771;-77
2024/03/14 05:22:39;;;;;;;87.10;54.00;;;;;;;5.05;100.00;98994.69;108895;1260;59273;-76
2024/03/14 05:25:06;;;;;;;89.00;54.00;;;;;;;5.05;100.00;98997.33;108936;1260;59380;-77
2024/03/14 05:27:33;;;;;;;80.50;53.30;;;;;;;5.04;100.00;98997.86;108918;1260;66030;-77
2024/03/14 05:29:59;;;;;;;82.70;51.70;;;;;;;5.04;100.00;98994.72;108941;1260;59356;-76
2024/03/14 05:32:27;;;;;;;75.90;51.10;;;;;;;5.06;100.00;98990.58;108944;1260;64370;-77
2024/03/14 05:34:55;;;;;;;93.40;62.00;;;;;;;5.07;100.00;98990.87;108922;1260;59032;-77
2024/03/14 05:37:27;;;;;;;86.30;60.60;;;;;;;5.09;100.00;98992.25;108714;1260;59381;-76
2024/03/14 05:39:54;;;;;;;83.60;55.40;;;;;;;5.11;100.00;98995.62;108743;1260;73397;-77
2024/03/14 05:42:20;;;;;;;86.80;57.40;;;;;;;5.13;100.00;99000.30;108939;1260;59842;-77
2024/03/14 05:44:48;;;;;;;87.60;58.80;;;;;;;5.15;100.00;99002.68;108756;1260;64234;-76
2024/03/14 05:47:15;;;;;;;85.40;57.30;;;;;;;5.17;100.00;99001.18;108865;1261;59273;-77
2024/03/14 05:49:42;;;;;;;84.40;55.90;;;;;;;5.20;100.00;99002.45;108758;1260;59107;-76
2024/03/14 05:52:10;;;;;;;84.30;55.60;;;;;;;5.22;100.00;99001.67;108946;1260;64614;-78
2024/03/14 05:54:36;;;;;;;78.10;54.90;;;;;;;5.26;100.00;99005.35;108916;1260;59148;-77
2024/03/14 05:57:03;;;;;;;98.90;60.70;;;;;;;5.29;100.00;99015.09;108912;1260;64092;-78
2024/03/14 05:59:30;;;;;;;87.80;57.70;;;;;;;5.32;100.00;99021.13;108917;1260;59080;-78
2024/03/14 06:01:57;;;;;;;87.00;55.90;;;;;;;5.36;100.00;99019.73;108934;1260;58952;-78
2024/03/14 06:04:23;;;;;;;81.80;55.00;;;;;;;5.39;100.00;99022.04;108915;1260;66061;-78
2024/03/14 06:06:50;;;;;;;85.30;56.40;;;;;;;5.44;100.00;99026.58;108899;1260;60245;-76
2024/03/14 06:09:17;;;;;;;81.10;55.40;;;;;;;5.48;100.00;99023.92;108894;1260;64172;-78
2024/03/14 06:11:44;;;;;;;83.70;53.20;;;;;;;5.51;100.00;99023.95;108892;1260;58991;-78
2024/03/14 06:14:10;;;;;;;83.30;55.80;;;;;;;5.52;100.00;99020.77;108926;1260;59167;-77
2024/03/14 06:16:37;;;;;;;82.10;52.90;;;;;;;5.52;100.00;99019.52;108947;1260;65866;-77
2024/03/14 06:19:03;;;;;;;81.00;52.90;;;;;;;5.55;100.00;99017.98;108923;1260;68674;-78
2024/03/14 06:21:30;;;;;;;85.30;56.10;;;;;;;5.59;100.00;99018.48;108925;1260;59142;-78
2024/03/14 06:23:56;;;;;;;81.80;55.40;;;;;;;5.63;100.00;99021.11;108884;1260;59122;-77
2024/03/14 06:26:23;;;;;;;88.30;55.90;;;;;;;5.66;100.00;99020.43;108918;1260;58943;-77
2024/03/14 06:28:52;;;;;;;85.40;56.30;;;;;;;5.71;100.00;99020.73;108925;1260;59131;-77
2024/03/14 06:31:19;;;;;;;77.70;54.40;;;;;;;5.78;100.00;99017.97;108923;1260;59127;-77
2024/03/14 06:33:46;;;;;;;80.60;55.10;;;;;;;5.85;100.00;99022.05;108887;1261;59074;-77
2024/03/14 06:36:13;;;;;;;82.40;54.90;;;;;;;5.90;100.00;99024.25;108863;1261;59328;-77
2024/03/14 06:38:39;;;;;;;78.80;52.70;;;;;;;5.98;100.00;99028.51;108915;1260;58859;-77
2024/03/14 06:41:07;;;;;;;73.20;52.10;;;;;;;6.05;100.00;99029.42;108937;1260;59463;-78
2024/03/14 06:43:33;;;;;;;72.90;49.80;;;;;;;6.11;100.00;99033.91;108907;1260;60028;-76
2024/03/14 06:45:59;;;;;;;68.90;50.30;;;;;;;6.12;100.00;99034.55;108929;1260;59213;-77
2024/03/14 06:48:26;;;;;;;70.00;49.10;;;;;;;6.16;100.00;99034.70;108919;1260;59001;-77
2024/03/14 06:50:52;;;;;;;73.90;51.00;;;;;;;6.24;100.00;99034.34;108912;1260;59261;-76
2024/03/14 06:53:19;;;;;;;73.60;51.60;;;;;;;6.31;100.00;99033.06;108930;1260;59043;-77
2024/03/14 06:55:46;;;;;;;77.00;51.90;;;;;;;6.42;100.00;99035.91;108953;1260;59043;-78
2024/03/14 06:58:15;;;;;;;73.30;50.60;;;;;;;6.53;100.00;99039.95;108920;1260;64082;-78
2024/03/14 07:00:42;;;;;;;69.20;49.40;;;;;;;6.63;100.00;99038.21;108909;1260;58927;-77
2024/03/14 07:03:09;;;;;;;78.30;51.10;;;;;;;6.72;100.00;99038.81;108917;1260;59234;-77
2024/03/14 07:05:36;;;;;;;70.10;50.90;;;;;;;6.79;100.00;99038.27;108938;1260;64935;-77
2024/03/14 07:08:05;;;;;;;68.00;51.40;;;;;;;6.88;100.00;99040.30;108905;1260;59043;-77
2024/03/14 07:10:31;;;;;;;70.30;50.70;;;;;;;6.97;100.00;99040.92;108916;1260;64044;-78
2024/03/14 07:12:58;;;;;;;68.80;49.90;;;;;;;7.09;100.00;99041.49;108733;1260;59510;-77
2024/03/14 07:15:24;;;;;;;68.30;50.60;;;;;;;7.20;100.00;99041.64;108933;1260;59169;-77
2024/03/14 07:17:51;;;;;;;68.30;49.00;;;;;;;7.30;100.00;99042.70;108785;1260;59101;-77
2024/03/14 07:20:18;;;;;;;65.90;48.70;;;;;;;7.38;100.00;99043.02;108931;1260;59077;-78
2024/03/14 07:22:47;;;;;;;66.70;50.40;;;;;;;7.45;100.00;99042.62;108902;1260;62785;-78
2024/03/14 07:25:17;;;;;;;67.10;49.10;;;;;;;7.51;100.00;99047.42;108893;1260;58975;-76
2024/03/14 07:27:44;;;;;;;67.00;50.50;;;;;;;7.56;100.00;99048.92;108948;1260;58904;-77
2024/03/14 07:30:14;;;;;;;63.00;47.80;;;;;;;7.63;100.00;99048.56;108942;1260;64494;-76
2024/03/14 07:32:41;;;;;;;;;;;;;;;7.67;100.00;99053.65;108936;1260;59079;-77
2024/03/14 07:35:09;;;;;;;73.70;58.20;;;;;;;7.72;100.00;99056.39;108911;1260;64095;-78
2024/03/14 07:37:35;;;;;;;68.10;51.30;;;;;;;7.81;100.00;99050.44;108902;1260;59143;-77
2024/03/14 07:40:04;;;;;;;67.90;49.40;;;;;;;7.87;100.00;99050.94;108940;1260;58827;-77
2024/03/14 07:42:31;;;;;;;65.40;48.10;;;;;;;7.94;100.00;99052.70;108922;1260;65861;-77
2024/03/14 07:44:58;;;;;;;64.20;50.00;;;;;;;8.00;100.00;99053.10;108765;1260;59154;-77
2024/03/14 07:47:25;;;;;;;63.50;47.00;;;;;;;8.06;100.00;99058.75;108878;1260;59091;-77
2024/03/14 07:49:53;;;;;;;61.90;45.30;;;;;;;8.16;100.00;99057.66;108929;1260;59317;-78
2024/03/14 07:52:20;;;;;;;59.90;43.80;;;;;;;8.27;100.00;99056.71;108954;1260;59019;-77
2024/03/14 07:54:47;;;;;;;57.30;44.00;;;;;;;8.35;100.00;99059.95;108928;1260;64514;-77
2024/03/14 07:57:15;;;;;;;56.70;44.70;;;;;;;8.45;100.00;99060.86;108931;1260;59212;-77
2024/03/14 07:59:42;;;;;;;58.40;43.10;;;;;;;8.53;100.00;99057.70;108875;1260;63912;-77
2024/03/14 08:02:12;;;;;;;55.40;41.90;;;;;;;8.61;100.00;99061.54;108895;1260;59364;-77
2024/03/14 08:04:41;;;;;;;55.90;43.30;;;;;;;8.70;100.00;99061.02;108962;1260;58901;-77
2024/03/14 08:07:13;;;;;;;59.10;46.10;;;;;;;8.77;100.00;99059.48;108930;1260;67011;-77
2024/03/14 08:09:41;;;;;;;55.90;43.00;;;;;;;8.87;100.00;99060.55;108736;1260;59894;-77
2024/03/14 08:12:07;;;;;;;59.70;45.80;;;;;;;8.96;100.00;99058.96;108863;1260;64073;-78
2024/03/14 08:14:34;;;;;;;60.60;45.60;;;;;;;9.01;100.00;99061.98;108884;1260;58988;-78
2024/03/14 08:17:02;;;;;;;61.70;43.70;;;;;;;9.04;100.00;99063.27;108963;1260;58958;-77
2024/03/14 08:19:28;;;;;;;52.90;43.20;;;;;;;9.07;100.00;99063.98;108926;1260;64840;-77
2024/03/14 08:21:58;;;;;;;57.40;45.40;;;;;;;9.07;100.00;99061.69;108944;1260;59837;-77
2024/03/14 08:24:26;;;;;;;58.20;44.20;;;;;;;9.13;100.00;99058.44;108918;1260;63847;-77
2024/03/14 08:26:53;;;;;;;55.60;41.60;;;;;;;9.25;100.00;99057.21;108900;1260;59136;-77
2024/03/14 08:29:20;;;;;;;54.20;42.70;;;;;;;9.37;100.00;99058.94;108938;1260;59270;-77
2024/03/14 08:31:48;;;;;;;54.90;42.90;;;;;;;9.49;100.00;99062.13;108922;1260;66988;-76
2024/03/14 08:34:17;;;;;;;53.50;43.10;;;;;;;9.60;100.00;99065.73;108930;1260;59049;-76
2024/03/14 08:36:43;;;;;;;51.00;40.50;;;;;;;9.70;100.00;99060.29;108911;1260;63878;-78
2024/03/14 08:39:11;;;;;;;49.10;40.20;;;;;;;9.82;100.00;99058.68;108875;1260;59120;-77
2024/03/14 08:41:38;;;;;;;54.20;42.30;;;;;;;9.98;100.00;99056.63;108899;1260;59066;-78
2024/03/14 08:44:05;;;;;;;50.00;41.60;;;;;;;10.14;100.00;99058.93;108911;1260;59318;-78
2024/03/14 08:46:31;;;;;;;51.30;41.40;;;;;;;10.26;100.00;99060.83;108907;1260;60607;-77
2024/03/14 08:48:58;;;;;;;57.10;45.10;;;;;;;10.32;100.00;99062.41;108917;1260;64104;-77
2024/03/14 08:51:26;;;;;;;49.20;40.70;;;;;;;10.45;100.00;99061.25;108923;1260;59039;-77
2024/03/14 08:54:08;;;;;;;49.50;39.60;;;;;;;10.61;100.00;99059.15;108930;1260;59084;-78
2024/03/14 08:56:35;;;;;;;49.80;39.00;;;;;;;10.75;100.00;99060.69;108951;1260;66055;-78
2024/03/14 08:59:02;;;;;;;46.50;39.50;;;;;;;10.86;100.00;99062.64;108904;1260;60222;-77
2024/03/14 09:01:30;;;;;;;43.40;37.20;;;;;;;10.93;100.00;99066.80;108910;1260;59277;-77
2024/03/14 09:03:59;;;;;;;46.90;37.20;;;;;;;10.99;100.00;99066.54;108874;1260;60631;-77
2024/03/14 09:06:28;;;;;;;43.90;38.20;;;;;;;11.04;100.00;99067.61;108906;1260;58916;-76
2024/03/14 09:09:00;;;;;;;43.00;35.50;;;;;;;11.12;100.00;99072.95;108587;1260;65763;-77
2024/03/14 09:11:28;;;;;;;44.30;35.10;;;;;;;11.14;100.00;99069.05;108917;1260;58986;-76
2024/03/14 09:13:55;;;;;;;40.00;33.90;;;;;;;11.25;100.00;99072.46;108894;1260;62871;-77
2024/03/14 09:16:21;;;;;;;43.20;36.10;;;;;;;11.39;100.00;99072.36;108890;1260;59080;-77
2024/03/14 09:18:48;;;;;;;43.40;36.00;;;;;;;11.51;100.00;99075.59;108908;1260;58917;-76
2024/03/14 09:21:15;;;;;;;41.30;35.20;;;;;;;11.56;100.00;99071.16;108934;1260;65846;-76
2024/03/14 09:23:41;;;;;;;42.30;35.70;;;;;;;11.65;100.00;99072.29;108949;1260;59934;-77
2024/03/14 09:26:08;;;;;;;42.00;35.00;;;;;;;11.76;100.00;99072.81;108928;1260;59307;-77
2024/03/14 09:28:35;;;;;;;38.80;33.60;;;;;;;11.85;100.00;99072.55;108903;1260;58990;-77
2024/03/14 09:31:02;;;;;;;40.90;34.30;;;;;;;11.84;100.00;99074.15;108928;1260;58930;-76
2024/03/14 09:33:30;;;;;;;40.20;33.50;;;;;;;11.89;100.00;99071.76;108880;1260;66218;-77
2024/03/14 09:35:56;;;;;;;39.60;33.90;;;;;;;11.98;100.00;99068.95;108909;1260;59606;-77
2024/03/14 09:38:23;;;;;;;36.10;32.10;;;;;;;12.09;100.00;99068.00;108897;1260;59018;-77
2024/03/14 09:40:50;;;;;;;36.90;32.90;;;;;;;12.03;100.00;99071.27;108876;1260;58960;-78
2024/03/14 09:43:19;;;;;;;38.40;32.50;;;;;;;11.94;100.00;99071.88;108940;1260;59047;-78
2024/03/14 09:45:48;;;;;;;36.70;32.40;;;;;;;11.91;100.00;99070.36;108782;1260;82622;-77
2024/03/14 09:48:15;;;;;;;38.60;33.10;;;;;;;11.87;100.00;99072.77;108924;1260;60602;-78
2024/03/14 09:50:43;;;;;;;37.20;32.40;;;;;;;11.93;100.00;99069.88;108735;1260;63994;-78
2024/03/14 09:53:15;;;;;;;37.10;32.20;;;;;;;11.96;100.00;99069.09;108903;1260;59394;-77
2024/03/14 09:55:41;;;;;;;34.40;30.70;;;;;;;12.04;100.00;99066.20;108911;1260;59066;-77
2024/03/14 09:58:08;;;;;;;34.30;29.80;;;;;;;12.15;100.00;99064.70;108915;1260;74590;-78
2024/03/14 10:00:35;;;;;;;33.40;29.40;;;;;;;12.23;100.00;99063.39;108727;1260;59349;-78
2024/03/14 10:03:05;;;;;;;33.30;29.60;;;;;;;12.27;100.00;99063.27;108917;1260;59090;-77
2024/03/14 10:05:34;;;;;;;32.30;28.90;;;;;;;12.42;100.00;99064.71;108897;1260;58992;-77
2024/03/14 10:08:02;;;;;;;34.80;31.00;;;;;;;12.51;100.00;99066.32;108950;1260;58849;-77
2024/03/14 10:10:33;;;;;;;37.20;31.20;;;;;;;12.62;100.00;99063.57;108916;1260;67356;-77
2024/03/14 10:13:00;;;;;;;35.00;30.40;;;;;;;12.68;100.00;99063.11;108921;1260;59293;-78
2024/03/14 10:15:27;;;;;;;34.20;30.40;;;;;;;12.69;100.00;99066.80;108916;1260;63766;-77
2024/03/14 10:17:54;;;;;;;39.00;31.10;;;;;;;12.82;100.00;99062.66;108699;1260;59151;-77
2024/03/14 10:20:20;;;;;;;36.60;32.10;;;;;;;12.98;100.00;99060.19;108921;1261;58989;-77
2024/03/14 10:22:50;;;;;;;33.10;28.80;;;;;;;13.03;100.00;99060.30;108904;1260;58953;-77
2024/03/14 10:25:23;;;;;;;32.70;26.50;;;;;;;13.11;100.00;99058.08;108895;1260;60505;-78
2024/03/14 10:27:53;;;;;;;28.90;24.50;;;;;;;13.26;100.00;99055.86;108914;1260;62944;-77
2024/03/14 10:30:21;;;;;;;29.60;26.20;;;;;;;13.35;100.00;99056.42;108886;1260;59469;-77
2024/03/14 10:32:49;;;;;;;32.50;28.40;;;;;;;13.37;100.00;99055.95;108926;1260;59017;-77
2024/03/14 10:35:16;;;;;;;36.20;30.70;;;;;;;13.33;100.00;99053.06;108896;1260;66220;-77
2024/03/14 10:37:48;;;;;;;52.10;43.50;;;;;;;13.32;100.00;99055.42;108931;1260;60169;-77
2024/03/14 10:40:20;;;;;;;46.30;37.70;;;;;;;13.32;100.00;99054.75;108904;1260;62614;-77
2024/03/14 10:42:50;;;;;;;54.20;39.60;;;;;;;13.29;100.00;99056.73;108935;1260;58940;-77
2024/03/14 10:45:17;;;;;;;38.00;31.00;;;;;;;13.19;100.00;99053.94;108923;1260;59021;-77
2024/03/14 10:47:43;;;;;;;33.60;29.60;;;;;;;13.16;100.00;99054.00;108948;1260;64944;-76
2024/03/14 10:50:16;;;;;;;34.10;26.30;;;;;;;13.20;100.00;99050.46;108933;1260;59055;-77
2024/03/14 10:52:45;;;;;;;30.60;25.90;;;;;;;13.11;100.00;99052.01;108815;1260;64401;-79
2024/03/14 10:55:15;;;;;;;36.90;29.30;;;;;;;12.93;100.00;99051.96;108917;1260;58994;-77
2024/03/14 10:57:43;;;;;;;28.30;24.10;;;;;;;12.83;100.00;99050.09;108902;1262;58976;-77
2024/03/14 11:00:17;;;;;;;32.20;27.90;;;;;;;12.72;100.00;99046.98;108898;1260;67241;-77
2024/03/14 11:02:51;;;;;;;31.10;27.60;;;;;;;12.66;100.00;99043.28;108892;1260;60250;-77
2024/03/14 11:05:20;;;;;;;28.30;24.30;;;;;;;12.70;100.00;99036.98;108900;1260;63866;-77
2024/03/14 11:07:48;;;;;;;27.20;21.10;;;;;;;12.77;100.00;99034.46;108944;1260;59325;-77